Time;durP1;ratioP1;P1;durP2;ratioP2;P2;SDS_P1;SDS_P2;PMS_P1;PMS_P2;Temp;Humidity;BMP_temperature;BMP_pressure;BME280_temperature;BME280_humidity;BME280_pressure;Samples;Min_cycle;Max_cycle;Signal;HPM_P1;HPM_P2
2023/02/15 00:01:41;;;;;;;27.90;14.70;;;1.80;99.90;;;;;;5062830;28;20045;-66
2023/02/15 00:04:09;;;;;;;26.52;14.98;;;1.80;99.90;;;;;;5063645;28;20048;-66
2023/02/15 00:06:36;;;;;;;26.38;14.65;;;1.80;99.90;;;;;;5063129;28;20044;-68
2023/02/15 00:09:03;;;;;;;31.42;18.15;;;1.80;99.90;;;;;;5064816;28;20036;-66
2023/02/15 00:11:51;;;;;;;29.02;15.38;;;1.80;99.90;;;;;;5062407;28;20044;-66
2023/02/15 00:14:22;;;;;;;27.33;16.50;;;1.80;99.90;;;;;;5059650;28;20064;-67
2023/02/15 00:16:51;;;;;;;27.80;15.25;;;1.80;99.90;;;;;;5063984;28;20052;-65
2023/02/15 00:19:20;;;;;;;27.75;16.27;;;1.80;99.90;;;;;;5061651;28;20565;-66
2023/02/15 00:21:48;;;;;;;26.45;15.73;;;1.80;99.90;;;;;;5061193;28;20140;-67
2023/02/15 00:24:18;;;;;;;27.90;15.23;;;1.80;99.90;;;;;;5062136;28;20140;-72
2023/02/15 00:26:46;;;;;;;32.22;16.60;;;1.80;99.90;;;;;;5062953;28;20087;-67
2023/02/15 00:29:14;;;;;;;25.75;15.60;;;1.80;99.90;;;;;;5063689;28;20474;-68
2023/02/15 00:31:41;;;;;;;27.67;15.38;;;1.80;99.90;;;;;;5055585;28;20136;-67
2023/02/15 00:34:20;;;;;;;26.48;15.40;;;1.80;99.90;;;;;;5062433;28;20105;-65
2023/02/15 00:36:48;;;;;;;23.67;13.95;;;1.80;99.90;;;;;;5061089;28;20110;-65
2023/02/15 00:39:17;;;;;;;21.50;13.00;;;1.70;99.90;;;;;;5061539;28;20675;-66
2023/02/15 00:41:44;;;;;;;19.15;12.48;;;1.70;99.90;;;;;;5062693;28;20064;-71
2023/02/15 00:44:11;;;;;;;24.75;12.48;;;1.70;99.90;;;;;;5061414;28;20064;-65
2023/02/15 00:46:38;;;;;;;24.13;13.77;;;1.70;99.90;;;;;;5065698;28;20110;-67
2023/02/15 00:49:09;;;;;;;19.77;12.32;;;1.70;99.90;;;;;;5064602;28;20421;-65
2023/02/15 00:51:37;;;;;;;21.58;13.43;;;1.70;99.90;;;;;;5062752;28;20128;-68
2023/02/15 00:54:04;;;;;;;22.38;14.07;;;1.70;99.90;;;;;;5057954;28;20403;-69
2023/02/15 00:56:31;;;;;;;19.65;12.88;;;1.70;99.90;;;;;;5067168;28;20049;-64
2023/02/15 00:58:58;;;;;;;22.67;12.65;;;1.70;99.90;;;;;;5066499;28;20143;-69
2023/02/15 01:01:26;;;;;;;17.38;12.18;;;1.70;99.90;;;;;;5064705;28;20044;-66
2023/02/15 01:03:53;;;;;;;20.33;14.10;;;1.70;99.90;;;;;;5066605;28;20059;-64
2023/02/15 01:06:20;;;;;;;19.48;13.88;;;1.70;99.90;;;;;;5064603;28;20056;-67
2023/02/15 01:08:47;;;;;;;20.77;13.77;;;1.80;99.90;;;;;;5066324;28;20409;-65
2023/02/15 01:11:24;;;;;;;15.07;11.60;;;1.70;99.90;;;;;;5065874;28;20056;-66
2023/02/15 01:13:53;;;;;;;15.60;10.70;;;1.80;99.90;;;;;;5064088;28;20450;-65
2023/02/15 01:16:22;;;;;;;16.20;11.70;;;1.80;99.90;;;;;;5064135;28;20057;-65
2023/02/15 01:18:49;;;;;;;12.43;9.38;;;1.70;99.90;;;;;;5066540;28;20079;-66
2023/02/15 01:21:19;;;;;;;13.38;10.82;;;1.70;99.90;;;;;;5063185;28;20151;-64
2023/02/15 01:23:47;;;;;;;20.42;13.32;;;1.70;99.90;;;;;;5067761;28;20072;-64
2023/02/15 01:26:15;;;;;;;20.77;11.50;;;1.70;99.90;;;;;;5064615;28;20561;-67
2023/02/15 01:28:44;;;;;;;17.90;12.88;;;1.80;99.90;;;;;;5067380;28;20048;-65
2023/02/15 01:31:14;;;;;;;19.00;12.32;;;1.70;99.90;;;;;;5066426;28;20044;-66
2023/02/15 01:33:41;;;;;;;17.65;11.13;;;1.80;99.90;;;;;;5066623;28;20064;-67
2023/02/15 01:36:09;;;;;;;18.20;10.50;;;1.80;99.90;;;;;;5059421;28;20390;-66
2023/02/15 01:38:39;;;;;;;20.67;11.32;;;1.80;99.90;;;;;;5066588;28;20036;-65
2023/02/15 01:41:25;;;;;;;16.90;11.55;;;1.80;99.90;;;;;;5065321;28;20391;-69
2023/02/15 01:43:56;;;;;;;15.18;11.23;;;1.80;99.90;;;;;;5062226;28;20048;-66
2023/02/15 01:46:29;;;;;;;19.70;12.23;;;1.80;99.90;;;;;;5063187;28;20040;-68
2023/02/15 01:49:13;;;;;;;14.32;10.75;;;1.80;99.90;;;;;;5066690;28;20137;-66
2023/02/15 01:51:42;;;;;;;13.50;9.73;;;1.80;99.90;;;;;;5065833;28;20093;-66
2023/02/15 01:54:21;;;;;;;14.48;10.10;;;1.80;99.90;;;;;;5056586;28;20044;-65
2023/02/15 01:56:48;;;;;;;12.32;10.20;;;1.70;99.90;;;;;;5060564;28;20094;-66
2023/02/15 01:59:20;;;;;;;13.80;10.13;;;1.80;99.90;;;;;;5062542;28;20122;-65
2023/02/15 02:01:50;;;;;;;14.27;8.95;;;1.70;99.90;;;;;;5063421;28;20052;-64
2023/02/15 02:04:29;;;;;;;14.70;10.23;;;1.70;99.90;;;;;;5063904;28;20413;-65
2023/02/15 02:06:57;;;;;;;11.55;8.25;;;1.80;99.90;;;;;;5064749;28;20346;-66
2023/02/15 02:09:24;;;;;;;10.73;8.30;;;1.70;99.90;;;;;;5063572;28;20052;-66
2023/02/15 02:11:53;;;;;;;10.73;8.55;;;1.70;99.90;;;;;;5063272;28;20102;-64
2023/02/15 02:14:22;;;;;;;12.25;9.52;;;1.70;99.90;;;;;;5063641;28;20147;-65
2023/02/15 02:17:13;;;;;;;11.57;8.52;;;1.60;99.90;;;;;;5064946;28;20068;-66
2023/02/15 02:20:04;;;;;;;10.18;8.98;;;1.60;99.90;;;;;;5080685;28;20082;-64
2023/02/15 02:22:56;;;;;;;12.48;9.35;;;1.50;99.90;;;;;;5060245;28;20045;-65
2023/02/15 02:25:59;;;;;;;14.35;8.75;;;1.50;99.90;;;;;;5055824;28;20051;-65
2023/02/15 02:29:11;;;;;;;11.63;7.50;;;1.50;99.90;;;;;;5060997;28;20044;-66
2023/02/15 02:32:02;;;;;;;13.70;9.50;;;1.50;99.90;;;;;;5001759;28;20452;-67
2023/02/15 02:34:33;;;;;;;13.60;9.57;;;1.50;99.90;;;;;;5062905;28;20049;-65
2023/02/15 02:37:16;;;;;;;12.35;8.55;;;1.50;99.90;;;;;;5061528;28;20068;-64
2023/02/15 02:40:21;;;;;;;13.82;9.07;;;1.50;99.90;;;;;;5063420;28;20067;-65
2023/02/15 02:43:05;;;;;;;15.82;9.73;;;1.50;99.90;;;;;;5049883;28;20091;-65
2023/02/15 02:45:54;;;;;;;15.98;10.15;;;1.50;99.90;;;;;;5063919;28;20076;-69
2023/02/15 02:48:25;;;;;;;13.88;9.63;;;1.50;99.90;;;;;;5063697;28;20061;-66
2023/02/15 02:50:53;;;;;;;14.93;10.82;;;1.50;99.90;;;;;;5063953;28;20104;-65
2023/02/15 02:53:20;;;;;;;16.85;10.73;;;1.50;99.90;;;;;;5059723;28;20075;-64
2023/02/15 02:56:21;;;;;;;13.35;10.93;;;1.50;99.90;;;;;;5065129;28;20082;-67
2023/02/15 02:58:54;;;;;;;16.70;11.38;;;1.50;99.90;;;;;;5046019;28;20577;-69
2023/02/15 03:01:27;;;;;;;14.70;10.23;;;1.60;99.90;;;;;;5057760;28;20461;-65
2023/02/15 03:04:03;;;;;;;16.67;11.45;;;1.60;99.90;;;;;;5051843;28;20516;-65
2023/02/15 03:07:11;;;;;;;18.77;11.60;;;1.60;99.90;;;;;;5061202;28;20045;-66
2023/02/15 03:09:47;;;;;;;17.75;12.63;;;1.60;99.90;;;;;;5034671;28;20159;-64
2023/02/15 03:12:21;;;;;;;17.48;11.52;;;1.60;99.90;;;;;;5028734;28;20139;-67
2023/02/15 03:14:56;;;;;;;21.52;12.75;;;1.60;99.90;;;;;;5042559;28;20058;-66
2023/02/15 03:17:27;;;;;;;20.00;12.40;;;1.70;99.90;;;;;;5059125;28;20131;-65
2023/02/15 03:19:57;;;;;;;22.23;12.93;;;1.60;99.90;;;;;;5063801;28;20072;-65
2023/02/15 03:22:43;;;;;;;21.35;13.50;;;1.70;99.90;;;;;;5058206;28;20102;-67
2023/02/15 03:25:17;;;;;;;18.17;13.77;;;1.70;99.90;;;;;;5076760;28;20044;-67
2023/02/15 03:27:49;;;;;;;21.65;12.80;;;1.70;99.90;;;;;;5062855;28;20041;-68
2023/02/15 03:30:20;;;;;;;16.80;12.10;;;1.70;99.90;;;;;;5055801;28;20048;-67
2023/02/15 03:32:48;;;;;;;18.80;11.70;;;1.70;99.90;;;;;;5062048;28;20076;-64
2023/02/15 03:35:16;;;;;;;23.20;13.60;;;1.70;99.90;;;;;;5056831;28;20485;-66
2023/02/15 03:37:58;;;;;;;18.75;13.07;;;1.70;99.90;;;;;;5062644;28;20048;-69
2023/02/15 03:43:23;;;;;;;;;;;1.70;99.90;;;;;;5060677;28;20056;-70
2023/02/15 03:45:55;;;;;;;21.45;12.02;;;1.70;99.90;;;;;;5061738;28;20007;-65
2023/02/15 03:48:27;;;;;;;20.75;12.32;;;1.70;99.90;;;;;;5059041;28;20048;-68
2023/02/15 03:53:49;;;;;;;18.70;10.77;;;1.70;99.90;;;;;;5064029;28;20723;-66
2023/02/15 03:56:15;;;;;;;20.23;13.35;;;1.70;99.90;;;;;;5061141;28;20048;-65
2023/02/15 04:04:32;;;;;;;18.63;12.45;;;1.70;99.90;;;;;;5058554;28;20051;-70
2023/02/15 04:06:59;;;;;;;20.55;13.70;;;1.70;99.90;;;;;;5064794;28;20048;-67
2023/02/15 04:12:12;;;;;;;18.90;12.65;;;1.70;99.90;;;;;;5062688;28;20168;-66
2023/02/15 04:17:24;;;;;;;17.90;10.85;;;1.70;99.90;;;;;;5063244;28;20151;-66
2023/02/15 04:25:22;;;;;;;20.60;11.93;;;1.70;99.90;;;;;;5067221;28;20147;-67
2023/02/15 04:27:54;;;;;;;21.20;13.90;;;1.70;99.90;;;;;;5066068;28;20655;-69
2023/02/15 04:30:23;;;;;;;18.73;11.35;;;1.70;99.90;;;;;;5064344;28;20075;-64
2023/02/15 04:32:51;;;;;;;15.02;11.57;;;1.70;99.90;;;;;;5063294;28;20040;-66
2023/02/15 04:35:18;;;;;;;18.77;12.43;;;1.70;99.90;;;;;;5066364;28;20066;-66
2023/02/15 04:37:45;;;;;;;16.42;12.23;;;1.60;99.90;;;;;;5067387;28;20174;-66
2023/02/15 04:40:14;;;;;;;17.90;11.70;;;1.70;99.90;;;;;;5061742;28;20049;-66
2023/02/15 04:42:43;;;;;;;22.10;11.70;;;1.60;99.90;;;;;;5066629;28;20132;-64
2023/02/15 04:45:10;;;;;;;17.55;10.82;;;1.60;99.90;;;;;;5064094;28;20500;-66
2023/02/15 04:47:37;;;;;;;18.23;11.48;;;1.60;99.90;;;;;;5065594;28;20041;-67
2023/02/15 04:50:04;;;;;;;17.05;10.88;;;1.60;99.90;;;;;;5064410;28;20052;-67
2023/02/15 04:52:31;;;;;;;17.27;10.95;;;1.60;99.90;;;;;;5065359;28;20135;-65
2023/02/15 04:54:58;;;;;;;16.98;11.00;;;1.60;99.90;;;;;;5064320;28;20056;-65
2023/02/15 04:57:25;;;;;;;19.42;12.05;;;1.60;99.90;;;;;;5067098;28;20048;-64
2023/02/15 04:59:52;;;;;;;16.80;10.50;;;1.60;99.90;;;;;;5065068;28;20045;-66
2023/02/15 05:02:19;;;;;;;17.77;11.48;;;1.60;99.90;;;;;;5066461;28;20044;-67
2023/02/15 05:04:46;;;;;;;17.92;12.13;;;1.60;99.90;;;;;;5065361;28;20041;-66
2023/02/15 05:07:14;;;;;;;20.95;12.55;;;1.60;99.90;;;;;;5068019;28;20078;-66
2023/02/15 05:09:41;;;;;;;23.55;12.45;;;1.60;99.90;;;;;;5066332;28;20413;-64
2023/02/15 05:12:08;;;;;;;22.45;13.00;;;1.60;99.90;;;;;;5064366;28;20060;-65
2023/02/15 05:14:35;;;;;;;19.77;12.60;;;1.60;99.90;;;;;;5064341;28;20071;-64
2023/02/15 05:17:03;;;;;;;21.48;12.32;;;1.60;99.90;;;;;;5063020;28;20059;-65
2023/02/15 05:19:29;;;;;;;19.90;12.48;;;1.60;99.90;;;;;;5063721;28;20480;-71
2023/02/15 05:21:56;;;;;;;18.88;13.15;;;1.60;99.90;;;;;;5060549;28;20182;-66
2023/02/15 05:29:58;;;;;;;17.27;11.30;;;1.60;99.90;;;;;;5061836;28;20073;-66
2023/02/15 05:32:25;;;;;;;19.48;12.40;;;1.60;99.90;;;;;;5064930;28;20072;-64
2023/02/15 05:34:52;;;;;;;18.92;12.40;;;1.60;99.90;;;;;;5065197;28;20046;-64
2023/02/15 05:37:19;;;;;;;19.73;13.00;;;1.60;99.90;;;;;;5065150;28;20542;-66
2023/02/15 05:39:46;;;;;;;19.85;12.77;;;1.60;99.90;;;;;;5063856;28;20471;-65
2023/02/15 05:42:12;;;;;;;21.55;13.77;;;1.60;99.90;;;;;;5063970;28;20044;-64
2023/02/15 05:44:39;;;;;;;19.27;11.70;;;1.60;99.90;;;;;;5064233;28;20140;-64
2023/02/15 05:47:07;;;;;;;22.40;13.52;;;1.70;99.90;;;;;;5064626;28;20058;-67
2023/02/15 05:49:34;;;;;;;17.67;11.80;;;1.60;99.90;;;;;;5066751;28;20115;-65
2023/02/15 05:52:01;;;;;;;17.73;12.23;;;1.60;99.90;;;;;;5063713;28;20144;-65
2023/02/15 05:54:28;;;;;;;21.15;13.30;;;1.70;99.90;;;;;;5065547;28;20105;-65
2023/02/15 05:56:55;;;;;;;18.52;13.77;;;1.70;99.90;;;;;;5065550;28;20405;-65
2023/02/15 05:59:22;;;;;;;20.02;13.00;;;1.60;99.90;;;;;;5064362;28;20092;-67
2023/02/15 06:01:49;;;;;;;27.20;12.98;;;1.70;99.90;;;;;;5062140;28;20057;-67
2023/02/15 06:04:16;;;;;;;18.02;11.60;;;1.60;99.90;;;;;;5062643;28;20481;-64
2023/02/15 06:06:43;;;;;;;18.02;12.05;;;1.70;99.90;;;;;;5063436;28;20044;-65
2023/02/15 06:09:12;;;;;;;24.55;12.55;;;1.70;99.90;;;;;;5065516;28;20051;-64
2023/02/15 06:11:39;;;;;;;23.13;13.32;;;1.70;99.90;;;;;;5059771;28;20040;-65
2023/02/15 06:14:05;;;;;;;21.42;12.38;;;1.70;99.90;;;;;;5060591;28;20044;-67
2023/02/15 06:16:32;;;;;;;19.92;12.27;;;1.70;99.90;;;;;;5064823;28;20052;-65
2023/02/15 06:19:01;;;;;;;19.45;13.05;;;1.70;99.90;;;;;;5064278;28;20131;-65
2023/02/15 06:21:29;;;;;;;18.02;12.02;;;1.70;99.90;;;;;;5061065;28;20040;-65
2023/02/15 06:23:56;;;;;;;21.73;13.65;;;1.70;99.90;;;;;;5058918;28;20052;-66
2023/02/15 06:26:23;;;;;;;20.08;13.55;;;1.70;99.90;;;;;;5063335;28;20123;-65
2023/02/15 06:28:50;;;;;;;19.27;12.60;;;1.70;99.90;;;;;;5061229;28;20052;-67
2023/02/15 06:31:17;;;;;;;19.00;12.35;;;1.70;99.90;;;;;;5060568;28;20055;-65
2023/02/15 06:33:44;;;;;;;19.88;13.15;;;1.80;99.90;;;;;;5058777;28;20053;-64
2023/02/15 06:36:12;;;;;;;27.60;13.88;;;1.70;99.90;;;;;;5059762;28;20139;-66
2023/02/15 06:38:39;;;;;;;19.67;12.13;;;1.80;99.90;;;;;;5060080;28;20127;-66
2023/02/15 06:41:06;;;;;;;17.33;10.80;;;1.80;99.90;;;;;;5064101;28;20147;-67
2023/02/15 06:43:34;;;;;;;20.23;13.00;;;1.80;99.90;;;;;;5062782;28;20131;-71
2023/02/15 06:46:01;;;;;;;20.23;11.38;;;1.80;99.90;;;;;;5057823;28;20060;-66
2023/02/15 06:48:28;;;;;;;23.45;12.75;;;1.80;99.90;;;;;;5062445;28;20106;-65
2023/02/15 06:50:55;;;;;;;22.17;13.52;;;1.80;99.90;;;;;;5058214;28;20045;-65
2023/02/15 06:53:22;;;;;;;20.08;13.13;;;1.80;99.90;;;;;;5060496;28;20049;-66
2023/02/15 06:55:49;;;;;;;20.02;14.18;;;1.80;99.90;;;;;;5064472;28;20102;-65
2023/02/15 06:58:16;;;;;;;22.15;14.68;;;1.80;99.90;;;;;;5057618;28;20102;-66
2023/02/15 07:00:43;;;;;;;20.80;13.27;;;1.80;99.90;;;;;;5063602;28;20155;-66
2023/02/15 07:03:12;;;;;;;20.42;13.30;;;1.80;99.90;;;;;;5057452;28;20049;-66
2023/02/15 07:05:39;;;;;;;24.90;13.35;;;1.80;99.90;;;;;;5057737;28;20054;-66
2023/02/15 07:08:06;;;;;;;22.52;12.82;;;1.90;99.90;;;;;;5057694;28;20382;-66
2023/02/15 07:10:33;;;;;;;22.30;13.95;;;1.80;99.90;;;;;;5059066;28;20076;-65
2023/02/15 07:13:00;;;;;;;21.58;14.00;;;1.90;99.90;;;;;;5058827;28;20054;-66
2023/02/15 07:15:27;;;;;;;18.70;12.98;;;1.90;99.90;;;;;;5060489;28;20060;-66
2023/02/15 07:17:53;;;;;;;21.23;11.90;;;1.90;99.90;;;;;;5063715;28;20079;-65
2023/02/15 07:20:24;;;;;;;20.80;12.52;;;1.90;99.90;;;;;;5062533;28;20048;-66
2023/02/15 07:22:51;;;;;;;;;;;1.90;99.90;;;;;;5063464;28;20441;-67
2023/02/15 07:25:18;;;;;;;25.33;13.45;;;1.90;99.90;;;;;;5062918;28;19946;-66
2023/02/15 07:27:45;;;;;;;21.30;13.20;;;1.90;99.90;;;;;;5061072;28;20087;-66
2023/02/15 07:30:15;;;;;;;24.95;13.68;;;1.90;99.90;;;;;;5062553;28;20759;-67
2023/02/15 07:35:32;;;;;;;19.08;12.88;;;2.00;99.90;;;;;;5061191;28;20051;-67
2023/02/15 07:37:59;;;;;;;22.23;14.82;;;2.00;99.90;;;;;;5060871;28;20049;-68
2023/02/15 07:40:26;;;;;;;23.75;15.35;;;2.00;99.90;;;;;;5060989;28;20446;-65
2023/02/15 07:42:54;;;;;;;20.30;12.55;;;2.00;99.90;;;;;;5062391;28;20540;-64
2023/02/15 07:45:22;;;;;;;20.63;13.02;;;2.00;99.90;;;;;;5062324;28;20056;-66
2023/02/15 07:47:49;;;;;;;19.25;13.52;;;2.00;99.90;;;;;;5060097;28;20127;-65
2023/02/15 07:50:16;;;;;;;19.67;13.52;;;2.00;99.90;;;;;;5062120;28;20058;-67
2023/02/15 07:52:43;;;;;;;22.00;13.38;;;2.00;99.90;;;;;;5062948;28;20044;-68
2023/02/15 07:55:12;;;;;;;24.48;13.38;;;2.00;99.90;;;;;;5063430;28;20133;-66
2023/02/15 07:57:46;;;;;;;19.20;12.68;;;2.10;99.90;;;;;;5068815;28;20098;-67
2023/02/15 08:00:18;;;;;;;18.25;13.20;;;2.10;99.90;;;;;;5063949;28;20048;-64
2023/02/15 08:03:12;;;;;;;27.25;13.32;;;2.10;99.90;;;;;;5068911;28;20504;-66
2023/02/15 08:05:37;;;;;;;21.35;12.95;;;2.10;99.90;;;;;;5061158;28;20513;-64
2023/02/15 08:08:04;;;;;;;22.98;13.68;;;2.10;99.90;;;;;;5065334;28;20498;-67
2023/02/15 08:13:16;;;;;;;18.48;12.95;;;2.10;99.90;;;;;;5067254;28;20128;-67
2023/02/15 08:15:50;;;;;;;21.52;13.68;;;2.20;99.90;;;;;;5063208;28;20132;-65
2023/02/15 08:18:17;;;;;;;17.13;12.07;;;2.10;99.90;;;;;;5062625;28;20048;-65
2023/02/15 08:20:49;;;;;;;21.42;14.50;;;2.20;99.90;;;;;;5067460;28;20056;-65
2023/02/15 08:23:16;;;;;;;21.10;13.40;;;2.20;99.90;;;;;;5066595;28;20101;-65
2023/02/15 08:25:43;;;;;;;19.80;13.20;;;2.20;99.90;;;;;;5064110;28;20046;-68
2023/02/15 08:28:11;;;;;;;20.55;12.68;;;2.20;99.90;;;;;;5066194;28;20049;-66
2023/02/15 08:30:37;;;;;;;17.92;11.57;;;2.20;99.90;;;;;;5064150;28;20070;-67
2023/02/15 08:33:04;;;;;;;17.40;10.85;;;2.20;99.90;;;;;;5067665;28;20464;-69
2023/02/15 08:35:31;;;;;;;25.10;10.85;;;2.20;99.90;;;;;;5064619;28;20041;-66
2023/02/15 08:37:58;;;;;;;19.92;11.35;;;2.20;99.90;;;;;;5066366;28;20635;-67
2023/02/15 08:40:24;;;;;;;19.70;11.57;;;2.20;99.90;;;;;;5061871;28;20062;-67
2023/02/15 08:42:51;;;;;;;21.48;11.55;;;2.20;99.90;;;;;;5068271;28;20127;-68
2023/02/15 08:45:18;;;;;;;18.88;12.05;;;2.30;99.90;;;;;;5064703;28;20064;-67
2023/02/15 08:47:45;;;;;;;17.55;11.70;;;2.30;99.90;;;;;;5066030;28;20582;-65
2023/02/15 08:50:12;;;;;;;20.80;11.23;;;2.30;99.90;;;;;;5063691;28;20139;-70
2023/02/15 08:52:39;;;;;;;18.92;10.30;;;2.30;99.90;;;;;;5066872;28;20605;-67
2023/02/15 08:55:06;;;;;;;15.90;10.10;;;2.30;99.90;;;;;;5065940;28;20056;-69
2023/02/15 08:57:33;;;;;;;19.42;11.07;;;2.30;99.90;;;;;;5065762;28;20502;-67
2023/02/15 08:59:59;;;;;;;16.20;11.02;;;2.30;99.90;;;;;;5063413;28;20051;-70
2023/02/15 09:02:26;;;;;;;14.07;9.52;;;2.40;99.90;;;;;;5065803;28;20045;-65
2023/02/15 09:04:53;;;;;;;19.52;11.50;;;2.40;99.90;;;;;;5064226;28;20052;-65
2023/02/15 09:07:20;;;;;;;17.00;11.57;;;2.40;99.90;;;;;;5064843;28;20462;-65
2023/02/15 09:09:47;;;;;;;15.70;9.40;;;2.40;99.90;;;;;;5065453;28;20044;-65
2023/02/15 09:12:14;;;;;;;16.88;10.35;;;2.40;99.90;;;;;;5063532;28;21200;-66
2023/02/15 09:14:40;;;;;;;15.77;9.02;;;2.40;99.90;;;;;;5065890;28;20132;-65
2023/02/15 09:17:07;;;;;;;16.00;9.18;;;2.40;99.90;;;;;;5060777;28;20052;-66
2023/02/15 09:19:34;;;;;;;20.42;10.95;;;2.40;99.90;;;;;;5062276;28;20055;-68
2023/02/15 09:22:01;;;;;;;17.35;9.95;;;2.40;99.90;;;;;;5062165;28;20912;-68
2023/02/15 09:24:33;;;;;;;15.20;10.23;;;2.40;99.90;;;;;;5065834;28;20040;-64
2023/02/15 09:27:00;;;;;;;16.02;9.43;;;2.40;99.90;;;;;;5063314;28;20196;-69
2023/02/15 09:29:27;;;;;;;16.52;10.40;;;2.40;99.90;;;;;;5066826;28;20447;-70
2023/02/15 09:31:54;;;;;;;15.10;10.20;;;2.40;99.90;;;;;;5066887;28;20093;-65
2023/02/15 09:34:22;;;;;;;14.98;10.38;;;2.40;99.90;;;;;;5065046;28;20044;-65
2023/02/15 09:36:49;;;;;;;15.80;9.65;;;2.40;99.90;;;;;;5066146;28;20052;-67
2023/02/15 09:39:23;;;;;;;17.95;10.80;;;2.40;99.90;;;;;;5066601;28;20066;-65
2023/02/15 09:42:11;;;;;;;14.38;9.88;;;2.40;99.90;;;;;;5064991;28;20094;-65
2023/02/15 09:44:59;;;;;;;17.85;10.40;;;2.40;99.90;;;;;;5074896;28;20425;-67
2023/02/15 09:47:45;;;;;;;11.82;8.93;;;2.40;99.90;;;;;;5062965;28;20044;-65
2023/02/15 09:50:15;;;;;;;14.50;9.70;;;2.40;99.90;;;;;;5062655;28;20079;-70
2023/02/15 09:53:19;;;;;;;11.52;7.18;;;2.40;99.90;;;;;;5065653;28;20149;-65
2023/02/15 09:55:55;;;;;;;15.38;11.90;;;2.40;99.90;;;;;;5058553;28;20049;-67
2023/02/15 09:58:32;;;;;;;17.92;10.93;;;2.40;99.90;;;;;;5061991;28;20140;-65
2023/02/15 10:01:21;;;;;;;14.70;9.77;;;2.50;99.90;;;;;;5065589;28;20435;-64
2023/02/15 10:04:05;;;;;;;14.63;10.40;;;2.40;99.90;;;;;;5063113;28;20122;-67
2023/02/15 10:06:41;;;;;;;18.60;10.65;;;2.50;99.90;;;;;;5060588;28;20045;-67
2023/02/15 10:09:34;;;;;;;15.98;9.38;;;2.50;99.90;;;;;;5062433;28;20147;-66
2023/02/15 10:12:24;;;;;;;15.18;10.55;;;2.50;99.90;;;;;;5061734;28;20072;-65
2023/02/15 10:15:16;;;;;;;12.43;8.20;;;2.50;99.90;;;;;;5065307;28;20098;-66
2023/02/15 10:18:04;;;;;;;15.30;9.38;;;2.50;99.90;;;;;;5062077;28;20136;-66
2023/02/15 10:21:00;;;;;;;12.60;8.57;;;2.40;99.90;;;;;;5062429;28;20102;-66
2023/02/15 10:23:33;;;;;;;10.68;8.00;;;2.40;99.90;;;;;;5062466;28;20520;-69
2023/02/15 10:26:11;;;;;;;15.90;8.02;;;2.50;99.90;;;;;;5059386;28;20111;-65
2023/02/15 10:28:49;;;;;;;9.70;7.28;;;2.50;99.90;;;;;;5063651;28;20114;-67
2023/02/15 10:31:21;;;;;;;11.00;8.43;;;2.50;99.90;;;;;;5062952;28;20049;-66
2023/02/15 10:34:11;;;;;;;13.70;8.48;;;2.50;99.90;;;;;;5061109;28;20057;-65
2023/02/15 10:37:11;;;;;;;10.43;7.90;;;2.50;99.90;;;;;;5063688;28;20091;-65
2023/02/15 10:40:11;;;;;;;10.88;7.45;;;2.50;99.90;;;;;;5065742;28;20106;-68
2023/02/15 10:43:06;;;;;;;13.82;8.50;;;2.40;99.90;;;;;;5060558;28;20052;-68
2023/02/15 10:45:46;;;;;;;12.73;9.05;;;2.40;99.90;;;;;;5063643;28;20059;-69
2023/02/15 10:48:27;;;;;;;12.35;7.65;;;2.40;99.90;;;;;;5061214;28;20045;-67
2023/02/15 10:51:00;;;;;;;13.02;7.38;;;2.40;99.90;;;;;;5065561;28;20076;-67
2023/02/15 10:54:09;;;;;;;16.38;8.88;;;2.40;99.90;;;;;;5063212;28;20055;-65
2023/02/15 10:57:01;;;;;;;13.50;8.05;;;2.40;99.90;;;;;;5059159;28;20046;-67
2023/02/15 10:59:34;;;;;;;12.18;7.10;;;2.40;99.90;;;;;;5062853;28;20047;-65
2023/02/15 11:02:12;;;;;;;11.38;8.32;;;2.40;99.90;;;;;;5062657;28;20052;-65
2023/02/15 11:04:54;;;;;;;15.18;8.35;;;2.40;99.90;;;;;;5063878;28;20101;-67
2023/02/15 11:07:32;;;;;;;10.90;7.60;;;2.40;99.90;;;;;;5064006;28;20539;-65
2023/02/15 11:10:48;;;;;;;11.10;7.63;;;2.40;99.90;;;;;;5060635;28;20048;-65
2023/02/15 11:13:18;;;;;;;14.85;7.80;;;2.40;99.90;;;;;;5053036;28;20051;-66
2023/02/15 11:15:51;;;;;;;13.60;6.60;;;2.40;99.90;;;;;;5064000;28;20135;-71
2023/02/15 11:18:27;;;;;;;10.48;8.07;;;2.40;99.90;;;;;;5061067;28;20066;-66
2023/02/15 11:21:09;;;;;;;7.85;6.05;;;2.40;99.90;;;;;;5061882;28;20051;-68
2023/02/15 11:23:41;;;;;;;19.73;6.82;;;2.40;99.90;;;;;;5060227;28;20102;-64
2023/02/15 11:26:28;;;;;;;16.67;8.73;;;2.40;99.90;;;;;;5061967;28;20051;-69
2023/02/15 11:29:06;;;;;;;11.30;6.60;;;2.40;99.90;;;;;;5062953;28;21269;-65
2023/02/15 11:31:48;;;;;;;18.25;7.82;;;2.40;99.90;;;;;;5059177;28;20154;-66
2023/02/15 11:34:47;;;;;;;15.48;7.80;;;2.40;99.90;;;;;;5062989;28;20085;-64
2023/02/15 11:37:23;;;;;;;12.48;9.23;;;2.40;99.90;;;;;;5061463;28;20383;-66
2023/02/15 11:39:54;;;;;;;15.80;7.53;;;2.40;99.90;;;;;;5063758;28;20060;-63
2023/02/15 11:42:24;;;;;;;12.35;7.53;;;2.40;99.90;;;;;;5062063;28;20418;-68
2023/02/15 11:45:19;;;;;;;15.23;7.07;;;2.30;99.90;;;;;;5064960;28;20095;-64
2023/02/15 11:47:46;;;;;;;13.98;6.78;;;2.40;99.90;;;;;;5060809;28;20068;-65
2023/02/15 11:50:22;;;;;;;13.88;8.32;;;2.40;99.90;;;;;;5062244;28;20699;-67
2023/02/15 11:52:51;;;;;;;11.15;6.07;;;2.40;99.90;;;;;;5063904;28;20044;-68
2023/02/15 11:55:22;;;;;;;9.35;6.50;;;2.30;99.90;;;;;;5062494;28;20047;-64
2023/02/15 11:58:19;;;;;;;13.07;6.68;;;2.40;99.90;;;;;;5064679;28;20182;-65
2023/02/15 12:00:48;;;;;;;24.08;8.23;;;2.30;99.90;;;;;;5062152;28;20088;-67
2023/02/15 12:03:23;;;;;;;10.40;6.30;;;2.30;99.90;;;;;;5064250;28;20044;-64
2023/02/15 12:05:58;;;;;;;16.92;7.50;;;2.30;99.90;;;;;;5061710;28;20037;-65
2023/02/15 12:08:28;;;;;;;11.63;6.35;;;2.20;99.90;;;;;;5062248;28;20068;-65
2023/02/15 12:11:03;;;;;;;7.47;6.18;;;2.20;99.90;;;;;;5063341;28;20072;-64
2023/02/15 12:13:30;;;;;;;11.55;6.88;;;2.20;99.90;;;;;;5063546;28;20052;-65
2023/02/15 12:16:05;;;;;;;7.55;6.28;;;2.20;99.90;;;;;;5062215;28;20486;-68
2023/02/15 12:18:38;;;;;;;11.32;6.65;;;2.20;99.90;;;;;;5060471;28;21105;-64
2023/02/15 12:21:16;;;;;;;9.48;6.28;;;2.20;99.90;;;;;;5063889;28;20048;-65
2023/02/15 12:24:03;;;;;;;8.30;6.43;;;2.10;99.90;;;;;;5062887;28;20086;-66
2023/02/15 12:26:34;;;;;;;7.75;5.70;;;2.10;99.90;;;;;;5059923;28;20143;-69
2023/02/15 12:29:16;;;;;;;12.43;6.82;;;2.10;99.90;;;;;;5059839;28;20086;-64
2023/02/15 12:31:51;;;;;;;10.23;6.28;;;2.10;99.90;;;;;;5063722;28;20567;-65
2023/02/15 12:34:26;;;;;;;14.30;6.22;;;2.20;99.90;;;;;;5062268;28;20521;-64
2023/02/15 12:36:57;;;;;;;12.15;6.93;;;2.10;99.90;;;;;;5060025;28;20094;-65
2023/02/15 12:39:27;;;;;;;13.32;6.22;;;2.10;99.90;;;;;;5063042;28;20106;-65
2023/02/15 12:41:54;;;;;;;12.20;6.30;;;2.10;99.90;;;;;;5066431;28;20056;-65
2023/02/15 12:44:28;;;;;;;10.23;5.45;;;2.10;99.90;;;;;;5065679;28;20312;-66
2023/02/15 12:47:03;;;;;;;16.40;5.75;;;2.10;99.90;;;;;;5066245;28;20040;-66
2023/02/15 12:49:36;;;;;;;10.65;7.03;;;2.10;99.90;;;;;;5067729;28;20053;-63
2023/02/15 12:52:06;;;;;;;9.65;6.75;;;2.10;99.90;;;;;;5064454;28;20040;-64
2023/02/15 12:54:38;;;;;;;10.85;6.72;;;2.10;99.90;;;;;;5067830;28;20052;-66
2023/02/15 12:57:25;;;;;;;12.77;6.72;;;2.10;99.90;;;;;;5066986;28;20394;-66
2023/02/15 12:59:56;;;;;;;15.13;7.10;;;2.10;99.90;;;;;;5063461;28;20687;-65
2023/02/15 13:02:44;;;;;;;10.43;6.68;;;2.10;99.90;;;;;;5065502;28;20079;-66
2023/02/15 13:05:19;;;;;;;11.88;7.80;;;2.10;99.90;;;;;;5056512;28;20174;-66
2023/02/15 13:08:03;;;;;;;15.98;6.47;;;2.10;99.90;;;;;;5065992;28;20091;-65
2023/02/15 13:10:36;;;;;;;13.15;6.78;;;2.00;99.90;;;;;;5066336;28;20135;-64
2023/02/15 13:13:21;;;;;;;13.30;7.85;;;2.00;99.90;;;;;;5064441;28;20498;-67
2023/02/15 13:15:55;;;;;;;8.23;6.50;;;2.00;99.90;;;;;;5066505;28;20104;-64
2023/02/15 13:18:34;;;;;;;9.60;5.90;;;1.90;99.90;;;;;;5065206;28;20049;-65
2023/02/15 13:21:11;;;;;;;11.27;6.57;;;1.90;99.90;;;;;;5066632;28;20083;-66
2023/02/15 13:23:40;;;;;;;6.75;6.05;;;1.90;99.90;;;;;;5066710;28;20075;-65
2023/02/15 13:26:15;;;;;;;8.13;7.13;;;1.90;99.90;;;;;;5064121;28;20043;-66
2023/02/15 13:28:46;;;;;;;11.15;6.82;;;2.00;99.90;;;;;;5063170;28;20106;-65
2023/02/15 13:31:17;;;;;;;8.60;6.05;;;1.90;99.90;;;;;;5062950;28;20076;-66
2023/02/15 13:33:46;;;;;;;;;;;1.90;99.90;;;;;;5066717;28;20414;-69
2023/02/15 13:36:21;;;;;;;9.15;6.07;;;1.90;99.90;;;;;;5063574;28;20015;-65
2023/02/15 13:39:24;;;;;;;9.23;6.00;;;1.90;99.90;;;;;;5066575;28;20053;-65
2023/02/15 13:42:00;;;;;;;12.48;5.88;;;1.90;99.90;;;;;;5064808;28;20090;-66
2023/02/15 13:44:38;;;;;;;6.65;5.50;;;1.90;99.90;;;;;;5064424;28;20355;-66
2023/02/15 13:47:26;;;;;;;8.18;5.53;;;1.90;99.90;;;;;;5065090;28;20060;-67